Time;durP1;ratioP1;P1;durP2;ratioP2;P2;SDS_P1;SDS_P2;PMS_P1;PMS_P2;Temp;Humidity;BMP_temperature;BMP_pressure;BME280_temperature;BME280_humidity;BME280_pressure;Samples;Min_cycle;Max_cycle;Signal;HPM_P1;HPM_P2
2023/05/30 00:04:21;;;;;;;7.57;1.45;;;11.40;1.00;;;;;;20861368;28;20040;-42
2023/05/30 00:14:23;;;;;;;11.40;2.10;;;11.40;1.00;;;;;;20870378;28;20048;-42
2023/05/30 00:24:25;;;;;;;6.82;1.90;;;11.30;1.00;;;;;;20867305;28;20037;-42
2023/05/30 00:34:26;;;;;;;14.25;3.25;;;11.30;1.00;;;;;;20875166;28;20522;-41
2023/05/30 00:44:27;;;;;;;8.13;2.95;;;11.30;1.00;;;;;;20875247;28;20032;-42
2023/05/30 00:54:29;;;;;;;10.15;2.78;;;11.20;1.00;;;;;;20876834;28;20041;-42
2023/05/30 01:04:32;;;;;;;7.30;2.60;;;11.10;1.00;;;;;;20868937;28;20029;-42
2023/05/30 01:14:59;;;;;;;8.98;1.38;;;11.20;1.00;;;;;;20875717;28;20045;-42
2023/05/30 01:25:09;;;;;;;6.15;1.52;;;11.10;1.00;;;;;;20847463;28;20090;-42
2023/05/30 01:35:23;;;;;;;5.85;1.88;;;11.00;1.00;;;;;;20878182;28;20036;-42
2023/05/30 01:45:35;;;;;;;9.45;1.50;;;10.80;1.00;;;;;;20877892;28;20990;-42
2023/05/30 01:55:41;;;;;;;6.40;1.55;;;10.80;1.00;;;;;;20882240;28;21257;-42
2023/05/30 02:05:42;;;;;;;4.93;2.15;;;10.70;1.00;;;;;;20874366;28;20032;-42
2023/05/30 02:15:43;;;;;;;4.82;1.33;;;10.70;1.00;;;;;;20873184;28;20636;-42
2023/05/30 02:25:45;;;;;;;7.50;1.92;;;10.60;1.00;;;;;;20872807;28;20041;-42
2023/05/30 02:35:46;;;;;;;6.05;1.85;;;10.50;1.00;;;;;;20875124;28;20121;-42
2023/05/30 02:45:47;;;;;;;7.93;2.05;;;10.60;1.00;;;;;;20871571;28;20411;-42
2023/05/30 02:55:48;;;;;;;6.20;1.88;;;10.60;1.00;;;;;;20865121;28;20041;-42
2023/05/30 03:05:49;;;;;;;5.20;1.55;;;10.70;1.00;;;;;;20862776;28;20045;-42
2023/05/30 03:15:50;;;;;;;12.40;2.72;;;10.70;1.00;;;;;;20872611;28;20048;-41
2023/05/30 03:25:51;;;;;;;7.93;2.13;;;10.60;1.00;;;;;;20862956;28;20044;-41
2023/05/30 03:35:52;;;;;;;4.78;1.77;;;10.70;1.00;;;;;;20869006;28;20052;-42
2023/05/30 03:45:54;;;;;;;4.68;1.48;;;10.80;1.00;;;;;;20872689;28;20477;-41
2023/05/30 03:55:55;;;;;;;14.13;2.00;;;10.90;1.00;;;;;;20879258;28;20444;-41
2023/05/30 04:05:56;;;;;;;8.57;1.65;;;11.00;1.00;;;;;;20869954;28;20101;-42
2023/05/30 04:16:00;;;;;;;4.95;1.98;;;10.90;1.00;;;;;;20859625;28;20048;-42
2023/05/30 04:26:01;;;;;;;3.42;1.77;;;11.10;1.00;;;;;;20866695;28;20523;-42
2023/05/30 04:36:05;;;;;;;7.47;2.03;;;11.10;1.00;;;;;;20871979;28;21380;-42
2023/05/30 04:46:06;;;;;;;5.60;2.35;;;11.20;1.00;;;;;;20866318;28;20049;-42
2023/05/30 04:56:07;;;;;;;8.90;2.30;;;11.30;1.00;;;;;;20864619;28;20044;-42
2023/05/30 05:06:09;;;;;;;6.22;2.40;;;11.50;1.00;;;;;;20861556;28;20036;-42
2023/05/30 05:16:11;;;;;;;8.18;2.78;;;11.70;1.00;;;;;;20880466;28;21046;-42
2023/05/30 05:26:12;;;;;;;6.90;1.90;;;11.70;1.00;;;;;;20882217;28;20044;-42
2023/05/30 05:36:13;;;;;;;11.20;2.10;;;11.80;1.00;;;;;;20871561;28;20063;-42
2023/05/30 05:46:14;;;;;;;11.68;1.92;;;11.90;1.00;;;;;;20872845;28;20041;-42
2023/05/30 05:56:15;;;;;;;8.20;1.55;;;12.00;1.00;;;;;;20881979;28;20048;-41
2023/05/30 06:06:16;;;;;;;4.10;1.35;;;12.10;1.00;;;;;;20883307;28;21445;-42
2023/05/30 06:16:17;;;;;;;5.70;1.85;;;12.20;1.00;;;;;;20880495;28;20049;-41
2023/05/30 06:26:18;;;;;;;6.70;2.42;;;12.40;1.00;;;;;;20871170;28;20419;-41
2023/05/30 06:36:19;;;;;;;2.92;1.83;;;12.70;1.00;;;;;;20886088;28;20052;-41
2023/05/30 06:46:21;;;;;;;3.88;1.63;;;12.80;1.00;;;;;;20870449;28;20058;-41
2023/05/30 06:56:22;;;;;;;7.15;2.38;;;12.90;1.00;;;;;;20893855;28;20040;-41
2023/05/30 07:06:24;;;;;;;3.67;1.50;;;13.00;1.00;;;;;;20883173;28;20036;-41
2023/05/30 07:16:25;;;;;;;5.18;1.83;;;13.10;1.00;;;;;;20874345;28;20052;-41
2023/05/30 07:26:26;;;;;;;3.75;1.48;;;13.20;1.00;;;;;;20883850;28;20037;-41
2023/05/30 07:36:27;;;;;;;5.38;1.75;;;13.40;1.00;;;;;;20882387;28;20665;-41
2023/05/30 07:46:28;;;;;;;6.35;1.67;;;13.50;1.00;;;;;;20882413;28;20123;-41
2023/05/30 07:56:29;;;;;;;11.35;1.88;;;13.70;1.00;;;;;;20886108;28;20044;-41
2023/05/30 08:06:33;;;;;;;6.00;2.05;;;13.90;1.00;;;;;;20873400;28;20036;-41
2023/05/30 08:16:34;;;;;;;7.05;2.25;;;14.00;1.00;;;;;;20883579;28;20044;-41
2023/05/30 08:26:35;;;;;;;5.00;1.67;;;14.20;1.00;;;;;;20879141;28;20428;-41
2023/05/30 08:36:37;;;;;;;5.00;1.70;;;14.30;1.00;;;;;;20876939;28;20052;-41
2023/05/30 08:46:42;;;;;;;21.05;3.20;;;14.50;1.00;;;;;;20882262;28;20447;-41
2023/05/30 08:56:51;;;;;;;5.50;1.70;;;14.60;1.00;;;;;;20895789;28;20045;-41
2023/05/30 09:06:54;;;;;;;4.03;1.60;;;14.90;1.00;;;;;;20886136;28;20060;-41
2023/05/30 09:16:55;;;;;;;6.30;2.10;;;15.30;1.00;;;;;;20889710;28;20522;-41
2023/05/30 09:27:01;;;;;;;4.20;1.30;;;15.60;1.00;;;;;;20893969;28;20041;-41
2023/05/30 09:37:04;;;;;;;2.90;0.98;;;15.90;1.00;;;;;;20891668;28;20036;-41
2023/05/30 09:47:05;;;;;;;3.33;1.40;;;15.90;1.00;;;;;;20894949;28;20029;-41
2023/05/30 09:57:06;;;;;;;4.15;1.10;;;16.10;1.00;;;;;;20888135;28;20060;-41
2023/05/30 10:07:07;;;;;;;6.15;1.35;;;16.30;1.00;;;;;;20879174;28;20495;-41
2023/05/30 10:17:14;;;;;;;3.95;1.10;;;16.10;1.00;;;;;;20871665;28;20087;-41
2023/05/30 10:27:33;;;;;;;2.60;1.60;;;16.20;1.00;;;;;;20892066;28;20381;-41
2023/05/30 10:37:36;;;;;;;1.85;0.82;;;16.50;1.00;;;;;;20886373;28;21427;-41
2023/05/30 10:48:10;;;;;;;3.05;1.13;;;16.40;1.00;;;;;;20879121;28;20040;-41
2023/05/30 10:58:37;;;;;;;2.70;1.20;;;16.50;1.00;;;;;;20875356;28;20051;-41
2023/05/30 11:08:40;;;;;;;6.20;1.90;;;16.50;1.00;;;;;;20879906;28;20492;-41
2023/05/30 11:18:41;;;;;;;4.45;1.33;;;16.30;1.00;;;;;;20872061;28;20048;-41
2023/05/30 11:28:43;;;;;;;2.10;1.30;;;16.00;1.00;;;;;;20871005;28;20051;-41
2023/05/30 11:38:48;;;;;;;3.22;1.30;;;15.70;1.00;;;;;;20868143;28;20040;-41
2023/05/30 11:48:49;;;;;;;6.47;1.15;;;15.70;1.00;;;;;;20868698;28;20048;-41
2023/05/30 11:58:50;;;;;;;2.25;0.98;;;15.40;1.00;;;;;;20867212;28;20043;-41
2023/05/30 12:08:54;;;;;;;2.83;1.13;;;15.40;1.00;;;;;;20866224;28;20037;-41
2023/05/30 12:18:57;;;;;;;3.25;1.40;;;15.30;1.00;;;;;;20823669;28;1080375;-41
2023/05/30 12:29:06;;;;;;;2.78;1.17;;;15.40;1.00;;;;;;20909104;28;20126;-41
2023/05/30 12:39:07;;;;;;;2.88;1.63;;;15.30;1.00;;;;;;20901621;28;20499;-41
2023/05/30 12:49:08;;;;;;;1.98;1.05;;;15.30;1.00;;;;;;20901903;28;20055;-41
2023/05/30 12:59:09;;;;;;;1.75;0.68;;;15.30;1.00;;;;;;20901267;28;20416;-41
2023/05/30 13:09:11;;;;;;;2.20;1.30;;;15.30;1.00;;;;;;20894936;28;20041;-41
2023/05/30 13:19:12;;;;;;;1.95;0.88;;;15.40;1.00;;;;;;20876413;28;20178;-41
2023/05/30 13:29:13;;;;;;;1.65;0.82;;;15.40;1.00;;;;;;20879055;28;20037;-41
2023/05/30 13:39:14;;;;;;;2.78;0.80;;;15.30;1.00;;;;;;20883913;28;20033;-41
2023/05/30 13:49:15;;;;;;;1.55;0.98;;;15.30;1.00;;;;;;20881195;28;20067;-41
2023/05/30 13:59:16;;;;;;;2.28;1.17;;;15.30;1.00;;;;;;20878732;28;20043;-41
2023/05/30 14:09:21;;;;;;;1.83;1.00;;;15.30;1.00;;;;;;20851437;28;20044;-41
2023/05/30 14:19:28;;;;;;;1.88;0.80;;;15.10;1.00;;;;;;20868535;28;20049;-41
2023/05/30 14:29:29;;;;;;;1.20;0.60;;;15.20;1.00;;;;;;20837301;28;20044;-41
2023/05/30 14:39:30;;;;;;;1.38;0.60;;;15.30;1.00;;;;;;20866410;28;20110;-41
2023/05/30 14:49:32;;;;;;;1.33;0.68;;;15.40;1.00;;;;;;20855882;28;20086;-41
2023/05/30 14:59:33;;;;;;;2.78;1.10;;;15.40;1.00;;;;;;20850074;28;20857;-41
2023/05/30 15:09:34;;;;;;;2.40;1.35;;;15.40;1.00;;;;;;20850018;28;20835;-41
2023/05/30 15:19:35;;;;;;;2.10;1.08;;;15.60;1.00;;;;;;20843947;28;20068;-42
2023/05/30 15:29:36;;;;;;;2.35;1.00;;;15.50;1.00;;;;;;20858653;28;20037;-41
2023/05/30 15:39:37;;;;;;;1.58;0.75;;;15.50;1.00;;;;;;20845621;28;20055;-41
2023/05/30 15:49:38;;;;;;;3.15;1.40;;;15.50;1.00;;;;;;20843448;28;20068;-41
2023/05/30 15:59:39;;;;;;;1.52;0.93;;;15.60;1.00;;;;;;20861210;28;20044;-41
2023/05/30 16:09:40;;;;;;;2.00;1.30;;;15.50;1.00;;;;;;20870717;28;20059;-41
2023/05/30 16:19:42;;;;;;;2.40;1.25;;;15.50;1.00;;;;;;20873721;28;20052;-41
2023/05/30 16:29:42;;;;;;;1.77;0.60;;;15.60;1.00;;;;;;20874190;28;20044;-41
2023/05/30 16:39:44;;;;;;;1.58;0.70;;;15.70;1.00;;;;;;20877040;28;20037;-41
2023/05/30 16:49:48;;;;;;;3.33;0.85;;;15.50;1.00;;;;;;20864900;28;20046;-41
2023/05/30 16:59:49;;;;;;;1.38;0.70;;;15.50;1.00;;;;;;20872633;28;20052;-41
2023/05/30 17:09:50;;;;;;;1.55;1.02;;;15.70;1.00;;;;;;20871012;28;20045;-41
2023/05/30 17:19:51;;;;;;;1.98;0.95;;;15.50;1.00;;;;;;20875431;28;20055;-41
2023/05/30 17:29:52;;;;;;;2.38;0.77;;;15.60;1.00;;;;;;20875047;28;21816;-41
2023/05/30 17:39:53;;;;;;;3.97;0.57;;;15.60;1.00;;;;;;20887775;28;20052;-41
2023/05/30 17:49:54;;;;;;;1.88;0.80;;;15.50;1.00;;;;;;20884158;28;20048;-41
2023/05/30 17:59:55;;;;;;;2.00;1.00;;;15.40;1.00;;;;;;20844568;28;20093;-41
2023/05/30 18:09:57;;;;;;;1.25;0.45;;;15.50;1.00;;;;;;20880102;28;20040;-41
2023/05/30 18:20:04;;;;;;;1.20;0.50;;;15.40;1.00;;;;;;20885470;28;20415;-41
2023/05/30 18:30:06;;;;;;;1.63;0.63;;;15.50;1.00;;;;;;20897474;28;20033;-41
2023/05/30 18:40:07;;;;;;;1.50;0.80;;;15.30;1.00;;;;;;20879023;28;20037;-41
2023/05/30 18:50:08;;;;;;;1.83;0.77;;;15.40;1.00;;;;;;20875150;28;20048;-41
2023/05/30 19:00:11;;;;;;;6.65;1.10;;;15.20;1.00;;;;;;20861795;28;20036;-41
2023/05/30 19:10:12;;;;;;;1.35;0.60;;;15.10;1.00;;;;;;20866881;28;20404;-41
2023/05/30 19:20:13;;;;;;;2.05;0.70;;;14.90;1.00;;;;;;20872210;28;20040;-41
2023/05/30 19:30:14;;;;;;;1.52;0.70;;;14.90;1.00;;;;;;20873995;28;20041;-41
2023/05/30 19:40:16;;;;;;;1.70;0.55;;;14.90;1.00;;;;;;20870999;28;20040;-41
2023/05/30 19:50:17;;;;;;;2.55;0.68;;;14.70;1.00;;;;;;20854656;28;21367;-41
2023/05/30 20:00:18;;;;;;;1.70;0.70;;;14.70;1.00;;;;;;20876627;28;20043;-41
2023/05/30 20:10:19;;;;;;;1.70;0.60;;;14.50;1.00;;;;;;20878849;28;20476;-41
2023/05/30 20:20:21;;;;;;;2.40;0.80;;;14.40;1.00;;;;;;20884770;28;20040;-41
2023/05/30 20:30:22;;;;;;;1.95;0.73;;;14.40;1.00;;;;;;20874980;28;20309;-41
2023/05/30 20:40:23;;;;;;;2.78;1.00;;;14.30;1.00;;;;;;20871056;28;20056;-41
2023/05/30 20:50:24;;;;;;;2.55;1.00;;;14.20;1.00;;;;;;20880904;28;20047;-41
2023/05/30 21:00:26;;;;;;;2.22;0.70;;;14.20;1.00;;;;;;20886360;28;20036;-41
2023/05/30 21:10:27;;;;;;;2.28;0.95;;;14.10;1.00;;;;;;20891202;28;20067;-42
2023/05/30 21:20:28;;;;;;;3.17;0.85;;;14.00;1.00;;;;;;20903094;28;20037;-42
2023/05/30 21:30:29;;;;;;;1.75;0.77;;;13.90;1.00;;;;;;20885550;28;20051;-41
2023/05/30 21:40:30;;;;;;;2.00;0.80;;;13.80;1.00;;;;;;20906375;28;20040;-42
2023/05/30 21:50:31;;;;;;;2.25;0.82;;;13.70;1.00;;;;;;20880819;28;20496;-42
2023/05/30 22:00:32;;;;;;;3.85;1.10;;;13.70;1.00;;;;;;20870263;28;20040;-41
2023/05/30 22:10:33;;;;;;;2.10;1.00;;;13.40;1.00;;;;;;20871793;28;20061;-42
2023/05/30 22:20:34;;;;;;;3.25;1.02;;;13.40;1.00;;;;;;20872810;28;20045;-41
2023/05/30 22:30:36;;;;;;;5.47;1.35;;;13.40;1.00;;;;;;20871809;28;20524;-41
2023/05/30 22:40:37;;;;;;;3.42;1.20;;;13.30;1.00;;;;;;20862312;28;20040;-42
2023/05/30 22:50:38;;;;;;;2.92;1.52;;;13.20;1.00;;;;;;20860249;28;20044;-41
2023/05/30 23:00:39;;;;;;;4.32;0.98;;;13.10;1.00;;;;;;20865597;28;21082;-41
2023/05/30 23:10:40;;;;;;;2.40;1.15;;;13.00;1.00;;;;;;20867263;28;20500;-41
2023/05/30 23:20:41;;;;;;;2.40;1.20;;;12.90;1.00;;;;;;20859301;28;20037;-42
2023/05/30 23:30:42;;;;;;;2.25;1.10;;;12.80;1.00;;;;;;20860183;28;20044;-42
2023/05/30 23:40:43;;;;;;;2.85;1.23;;;12.80;1.00;;;;;;20870199;28;20047;-41
2023/05/30 23:50:44;;;;;;;3.55;1.30;;;12.60;1.00;;;;;;20868498;28;20048;-41
